WZZ6260 EDDS-LQBK
Flight info
| Callsign | WZZ6260 |
|---|---|
| Flight time | 1h 6m |
| Altitude | 35000 |
| Route | KUNOD2B KUNOD DCT PELOG DCT USUDO Y326 MOMUK L607 BEMKI T23 BIRGI DCT VEKEN DCT DOL DCT MAGAM DCT NOVLO |
| Aircraft | A21N/M-SDE3FGHIRWY/LB1 |
Departure
| Time | 2026-05-07 20:32 |
|---|---|
| Airport | Stuttgart Airport (EDDS) |
Arrival
| Time | 2026-05-07 21:38 |
|---|---|
| Airport | Banja Luka International Airport (LQBK) |
| Time | Latitude | Longitude | Altitude | Speed | Heading |
|---|---|---|---|---|---|
| 2026-05-07 19:57 | 48.68798 | 9.19682 | 1300 ft | 0 kts | 165° |
| 2026-05-07 20:18 | 48.68792 | 9.19684 | 1300 ft | 3 kts | 165° |
| 2026-05-07 20:18 | 48.68755 | 9.19705 | 1298 ft | 6 kts | 129° |
| 2026-05-07 20:19 | 48.68750 | 9.19806 | 1295 ft | 11 kts | 76° |
| 2026-05-07 20:19 | 48.68765 | 9.19941 | 1293 ft | 14 kts | 92° |
| 2026-05-07 20:19 | 48.68769 | 9.20099 | 1289 ft | 15 kts | 76° |
| 2026-05-07 20:19 | 48.68799 | 9.20276 | 1283 ft | 19 kts | 72° |
| 2026-05-07 20:20 | 48.68838 | 9.20480 | 1278 ft | 21 kts | 73° |
| 2026-05-07 20:20 | 48.68869 | 9.20639 | 1273 ft | 5 kts | 74° |
| 2026-05-07 20:20 | 48.68871 | 9.20650 | 1273 ft | 1 kts | 73° |
| 2026-05-07 20:20 | 48.68877 | 9.20682 | 1273 ft | 4 kts | 73° |
| 2026-05-07 20:21 | 48.68880 | 9.20698 | 1272 ft | 2 kts | 73° |
| 2026-05-07 20:21 | 48.68882 | 9.20709 | 1272 ft | 1 kts | 72° |
| 2026-05-07 20:21 | 48.68890 | 9.20751 | 1271 ft | 6 kts | 75° |
| 2026-05-07 20:21 | 48.68907 | 9.20845 | 1269 ft | 12 kts | 73° |
| 2026-05-07 20:22 | 48.68936 | 9.20997 | 1264 ft | 17 kts | 73° |
| 2026-05-07 20:22 | 48.68975 | 9.21203 | 1257 ft | 22 kts | 74° |
| 2026-05-07 20:22 | 48.69022 | 9.21447 | 1250 ft | 25 kts | 74° |
| 2026-05-07 20:22 | 48.69073 | 9.21719 | 1241 ft | 27 kts | 73° |
| 2026-05-07 20:23 | 48.69128 | 9.22006 | 1232 ft | 28 kts | 73° |
| 2026-05-07 20:23 | 48.69178 | 9.22269 | 1227 ft | 23 kts | 74° |
| 2026-05-07 20:23 | 48.69224 | 9.22508 | 1224 ft | 23 kts | 73° |
| 2026-05-07 20:23 | 48.69268 | 9.22744 | 1220 ft | 23 kts | 75° |
| 2026-05-07 20:24 | 48.69313 | 9.22983 | 1217 ft | 23 kts | 73° |
| 2026-05-07 20:24 | 48.69358 | 9.23221 | 1214 ft | 23 kts | 73° |
| 2026-05-07 20:24 | 48.69405 | 9.23471 | 1206 ft | 25 kts | 73° |
| 2026-05-07 20:24 | 48.69456 | 9.23739 | 1198 ft | 27 kts | 74° |
| 2026-05-07 20:25 | 48.69510 | 9.24021 | 1189 ft | 28 kts | 73° |
| 2026-05-07 20:25 | 48.69544 | 9.24206 | 1185 ft | 11 kts | 74° |
| 2026-05-07 20:25 | 48.69545 | 9.24280 | 1184 ft | 4 kts | 119° |
| 2026-05-07 20:25 | 48.69539 | 9.24291 | 1184 ft | 0 kts | 148° |
| 2026-05-07 20:28 | 48.69537 | 9.24292 | 1184 ft | 1 kts | 149° |
| 2026-05-07 20:29 | 48.69513 | 9.24312 | 1183 ft | 6 kts | 155° |
| 2026-05-07 20:29 | 48.69465 | 9.24332 | 1182 ft | 8 kts | 167° |
| 2026-05-07 20:29 | 48.69424 | 9.24344 | 1182 ft | 3 kts | 174° |
| 2026-05-07 20:29 | 48.69390 | 9.24318 | 1182 ft | 7 kts | 239° |
| 2026-05-07 20:30 | 48.69381 | 9.24269 | 1182 ft | 0 kts | 253° |
| 2026-05-07 20:31 | 48.69346 | 9.24089 | 1186 ft | 51 kts | 254° |
| 2026-05-07 20:31 | 48.69183 | 9.23217 | 1212 ft | 120 kts | 253° |
| 2026-05-07 20:31 | 48.68895 | 9.21707 | 1274 ft | 171 kts | 255° |
| 2026-05-07 20:32 | 48.68591 | 9.19946 | 1806 ft | 178 kts | 256° |
| 2026-05-07 20:32 | 48.68277 | 9.18133 | 2496 ft | 181 kts | 255° |
| 2026-05-07 20:32 | 48.67923 | 9.16329 | 3206 ft | 183 kts | 254° |
| 2026-05-07 20:32 | 48.67535 | 9.14447 | 3560 ft | 195 kts | 254° |
| 2026-05-07 20:33 | 48.67122 | 9.12433 | 3874 ft | 210 kts | 253° |
| 2026-05-07 20:33 | 48.66598 | 9.10254 | 4187 ft | 228 kts | 242° |
| 2026-05-07 20:33 | 48.65416 | 9.08573 | 4397 ft | 251 kts | 202° |
| 2026-05-07 20:33 | 48.63612 | 9.08303 | 4788 ft | 267 kts | 165° |
| 2026-05-07 20:34 | 48.62026 | 9.09727 | 5411 ft | 273 kts | 130° |
| 2026-05-07 20:34 | 48.61241 | 9.12285 | 6124 ft | 276 kts | 97° |
| 2026-05-07 20:34 | 48.61321 | 9.15173 | 6813 ft | 280 kts | 82° |
| 2026-05-07 20:34 | 48.61479 | 9.18097 | 7482 ft | 285 kts | 96° |
| 2026-05-07 20:35 | 48.60799 | 9.20856 | 8135 ft | 286 kts | 129° |
| 2026-05-07 20:35 | 48.59351 | 9.22864 | 8835 ft | 285 kts | 145° |
| 2026-05-07 20:35 | 48.57690 | 9.24525 | 9503 ft | 289 kts | 150° |
| 2026-05-07 20:35 | 48.55945 | 9.26093 | 10173 ft | 293 kts | 149° |
| 2026-05-07 20:36 | 48.54239 | 9.27838 | 10653 ft | 305 kts | 146° |
| 2026-05-07 20:36 | 48.52475 | 9.29757 | 10969 ft | 321 kts | 146° |
| 2026-05-07 20:36 | 48.50665 | 9.31732 | 11467 ft | 329 kts | 146° |
| 2026-05-07 20:36 | 48.48794 | 9.33760 | 12131 ft | 331 kts | 146° |
| 2026-05-07 20:37 | 48.46924 | 9.35772 | 12776 ft | 334 kts | 146° |
| 2026-05-07 20:37 | 48.45027 | 9.37800 | 13395 ft | 336 kts | 146° |
| 2026-05-07 20:37 | 48.43100 | 9.39852 | 14005 ft | 339 kts | 146° |
| 2026-05-07 20:37 | 48.41179 | 9.41893 | 14592 ft | 342 kts | 146° |
| 2026-05-07 20:38 | 48.39225 | 9.43966 | 15175 ft | 345 kts | 146° |
| 2026-05-07 20:38 | 48.37264 | 9.46042 | 15739 ft | 348 kts | 146° |
| 2026-05-07 20:38 | 48.35274 | 9.48148 | 16283 ft | 351 kts | 146° |
| 2026-05-07 20:38 | 48.33276 | 9.50257 | 16830 ft | 354 kts | 146° |
| 2026-05-07 20:39 | 48.31261 | 9.52383 | 17359 ft | 357 kts | 146° |
| 2026-05-07 20:39 | 48.29216 | 9.54537 | 17872 ft | 360 kts | 146° |
| 2026-05-07 20:39 | 48.27185 | 9.56676 | 18373 ft | 362 kts | 146° |
| 2026-05-07 20:39 | 48.25112 | 9.58855 | 18876 ft | 365 kts | 146° |
| 2026-05-07 20:40 | 48.23018 | 9.61056 | 19367 ft | 368 kts | 146° |
| 2026-05-07 20:40 | 48.20929 | 9.63248 | 19840 ft | 370 kts | 146° |
| 2026-05-07 20:40 | 48.18798 | 9.65481 | 20313 ft | 373 kts | 147° |
| 2026-05-07 20:40 | 48.16687 | 9.67693 | 20769 ft | 376 kts | 147° |
| 2026-05-07 20:41 | 48.14530 | 9.69949 | 21204 ft | 379 kts | 147° |
| 2026-05-07 20:41 | 48.12363 | 9.72213 | 21623 ft | 382 kts | 147° |
| 2026-05-07 20:41 | 48.10163 | 9.74514 | 22055 ft | 385 kts | 147° |
| 2026-05-07 20:41 | 48.07976 | 9.76804 | 22480 ft | 387 kts | 147° |
| 2026-05-07 20:42 | 48.05759 | 9.79124 | 22899 ft | 389 kts | 147° |
| 2026-05-07 20:42 | 48.03557 | 9.81423 | 23300 ft | 392 kts | 147° |
| 2026-05-07 20:42 | 48.01307 | 9.83770 | 23705 ft | 394 kts | 147° |
| 2026-05-07 20:42 | 47.99051 | 9.86120 | 24024 ft | 397 kts | 147° |
| 2026-05-07 20:43 | 47.96783 | 9.88480 | 24044 ft | 397 kts | 147° |
| 2026-05-07 20:43 | 47.94523 | 9.90828 | 24048 ft | 397 kts | 147° |
| 2026-05-07 20:43 | 47.92280 | 9.93156 | 24049 ft | 397 kts | 147° |
| 2026-05-07 20:43 | 47.89996 | 9.95524 | 24049 ft | 397 kts | 148° |
| 2026-05-07 20:44 | 47.87758 | 9.97841 | 24049 ft | 397 kts | 148° |
| 2026-05-07 20:44 | 47.85488 | 10.00188 | 24047 ft | 397 kts | 147° |
| 2026-05-07 20:44 | 47.83221 | 10.02533 | 24046 ft | 397 kts | 147° |
| 2026-05-07 20:44 | 47.80967 | 10.04868 | 24051 ft | 397 kts | 147° |
| 2026-05-07 20:45 | 47.78682 | 10.07230 | 24049 ft | 397 kts | 147° |
| 2026-05-07 20:45 | 47.76438 | 10.09547 | 24050 ft | 397 kts | 147° |
| 2026-05-07 20:45 | 47.74160 | 10.11896 | 24054 ft | 397 kts | 147° |
| 2026-05-07 20:45 | 47.71894 | 10.14229 | 24047 ft | 397 kts | 147° |
| 2026-05-07 20:46 | 47.69626 | 10.16562 | 24049 ft | 397 kts | 147° |
| 2026-05-07 20:46 | 47.67351 | 10.18900 | 24055 ft | 397 kts | 147° |
| 2026-05-07 20:46 | 47.65081 | 10.21227 | 24045 ft | 398 kts | 147° |
| 2026-05-07 20:46 | 47.62809 | 10.23555 | 24055 ft | 398 kts | 147° |
| 2026-05-07 20:47 | 47.60532 | 10.25888 | 24056 ft | 398 kts | 147° |
| 2026-05-07 20:47 | 47.58270 | 10.28258 | 24057 ft | 399 kts | 143° |
| 2026-05-07 20:47 | 47.56346 | 10.31252 | 24059 ft | 403 kts | 126° |
| 2026-05-07 20:47 | 47.55028 | 10.34904 | 24067 ft | 405 kts | 111° |
| 2026-05-07 20:48 | 47.54197 | 10.38847 | 24069 ft | 406 kts | 106° |
| 2026-05-07 20:48 | 47.53428 | 10.42889 | 24155 ft | 410 kts | 106° |
| 2026-05-07 20:48 | 47.52651 | 10.46976 | 24552 ft | 412 kts | 106° |
| 2026-05-07 20:48 | 47.51868 | 10.51009 | 24974 ft | 413 kts | 106° |
| 2026-05-07 20:49 | 47.51060 | 10.55109 | 25324 ft | 415 kts | 106° |
| 2026-05-07 20:49 | 47.50241 | 10.59211 | 25660 ft | 418 kts | 107° |
| 2026-05-07 20:49 | 47.49419 | 10.63303 | 25981 ft | 421 kts | 107° |
| 2026-05-07 20:49 | 47.48582 | 10.67460 | 26288 ft | 424 kts | 107° |
| 2026-05-07 20:50 | 47.47733 | 10.71667 | 26599 ft | 426 kts | 107° |
| 2026-05-07 20:50 | 47.46954 | 10.75843 | 26886 ft | 429 kts | 104° |
| 2026-05-07 20:50 | 47.46330 | 10.80159 | 27182 ft | 431 kts | 101° |
| 2026-05-07 20:50 | 47.45778 | 10.84535 | 27473 ft | 434 kts | 101° |
| 2026-05-07 20:51 | 47.45231 | 10.88949 | 27753 ft | 436 kts | 101° |
| 2026-05-07 20:51 | 47.44684 | 10.93351 | 28040 ft | 439 kts | 101° |
| 2026-05-07 20:51 | 47.44130 | 10.97761 | 28343 ft | 440 kts | 101° |
| 2026-05-07 20:51 | 47.43572 | 11.02191 | 28594 ft | 443 kts | 101° |
| 2026-05-07 20:52 | 47.43003 | 11.06670 | 28881 ft | 445 kts | 101° |
| 2026-05-07 20:52 | 47.42427 | 11.11185 | 29145 ft | 448 kts | 101° |
| 2026-05-07 20:52 | 47.41852 | 11.15677 | 29417 ft | 450 kts | 101° |
| 2026-05-07 20:52 | 47.41264 | 11.20253 | 29661 ft | 453 kts | 101° |
| 2026-05-07 20:53 | 47.40680 | 11.24766 | 29912 ft | 455 kts | 101° |
| 2026-05-07 20:53 | 47.40086 | 11.29352 | 30155 ft | 457 kts | 101° |
| 2026-05-07 20:53 | 47.39480 | 11.34012 | 30408 ft | 460 kts | 101° |
| 2026-05-07 20:53 | 47.38889 | 11.38646 | 30657 ft | 462 kts | 99° |
| 2026-05-07 20:54 | 47.38441 | 11.43278 | 30840 ft | 465 kts | 96° |
| 2026-05-07 20:54 | 47.38085 | 11.48026 | 31068 ft | 467 kts | 96° |
| 2026-05-07 20:54 | 47.37740 | 11.52811 | 31325 ft | 469 kts | 96° |
| 2026-05-07 20:54 | 47.37399 | 11.57540 | 31528 ft | 471 kts | 96° |
| 2026-05-07 20:55 | 47.37047 | 11.62342 | 31732 ft | 473 kts | 96° |
| 2026-05-07 20:55 | 47.36689 | 11.67146 | 31930 ft | 475 kts | 97° |
| 2026-05-07 20:55 | 47.36323 | 11.72015 | 32113 ft | 477 kts | 97° |
| 2026-05-07 20:55 | 47.35953 | 11.76896 | 32302 ft | 479 kts | 97° |
| 2026-05-07 20:56 | 47.35522 | 11.81714 | 32510 ft | 480 kts | 101° |
| 2026-05-07 20:56 | 47.34788 | 11.86550 | 32782 ft | 480 kts | 107° |
| 2026-05-07 20:56 | 47.33757 | 11.91151 | 33009 ft | 478 kts | 113° |
| 2026-05-07 20:56 | 47.32396 | 11.95651 | 33243 ft | 476 kts | 120° |
| 2026-05-07 20:57 | 47.30763 | 11.99861 | 33431 ft | 474 kts | 126° |
| 2026-05-07 20:57 | 47.28868 | 12.03811 | 33578 ft | 473 kts | 131° |
| 2026-05-07 20:57 | 47.26874 | 12.07592 | 33728 ft | 475 kts | 131° |
| 2026-05-07 20:57 | 47.24820 | 12.11421 | 33868 ft | 476 kts | 132° |
| 2026-05-07 20:58 | 47.22769 | 12.15245 | 34039 ft | 478 kts | 132° |
| 2026-05-07 20:58 | 47.20721 | 12.19078 | 34195 ft | 479 kts | 131° |
| 2026-05-07 20:58 | 47.18676 | 12.22914 | 34362 ft | 480 kts | 131° |
| 2026-05-07 20:58 | 47.16605 | 12.26806 | 34554 ft | 480 kts | 131° |
| 2026-05-07 20:59 | 47.14570 | 12.30631 | 34761 ft | 480 kts | 131° |
| 2026-05-07 20:59 | 47.12500 | 12.34518 | 34937 ft | 481 kts | 131° |
| 2026-05-07 20:59 | 47.10447 | 12.38368 | 35055 ft | 482 kts | 131° |
| 2026-05-07 21:00 | 47.06318 | 12.46102 | 35070 ft | 483 kts | 131° |
| 2026-05-07 21:00 | 47.02178 | 12.53835 | 35088 ft | 483 kts | 131° |
| 2026-05-07 21:01 | 46.98004 | 12.61608 | 35068 ft | 483 kts | 131° |
| 2026-05-07 21:01 | 46.93872 | 12.69286 | 35032 ft | 483 kts | 133° |
| 2026-05-07 21:02 | 46.89724 | 12.76967 | 35041 ft | 483 kts | 133° |
| 2026-05-07 21:02 | 46.85505 | 12.84758 | 35037 ft | 482 kts | 133° |
| 2026-05-07 21:03 | 46.81339 | 12.92427 | 35046 ft | 483 kts | 133° |
| 2026-05-07 21:03 | 46.77173 | 13.00083 | 35069 ft | 482 kts | 133° |
| 2026-05-07 21:04 | 46.72995 | 13.07727 | 35085 ft | 483 kts | 133° |
| 2026-05-07 21:04 | 46.68833 | 13.15328 | 35100 ft | 483 kts | 133° |
| 2026-05-07 21:05 | 46.64655 | 13.22936 | 35069 ft | 482 kts | 133° |
| 2026-05-07 21:05 | 46.60462 | 13.30547 | 34969 ft | 483 kts | 133° |
| 2026-05-07 21:05 | 46.58427 | 13.34414 | 35098 ft | 485 kts | 130° |
| 2026-05-07 21:06 | 46.56545 | 13.38450 | 35082 ft | 487 kts | 126° |
| 2026-05-07 21:06 | 46.54816 | 13.42699 | 34962 ft | 489 kts | 122° |
| 2026-05-07 21:06 | 46.53270 | 13.47075 | 35003 ft | 492 kts | 119° |
| 2026-05-07 21:07 | 46.50286 | 13.56029 | 35049 ft | 492 kts | 119° |
| 2026-05-07 21:07 | 46.47323 | 13.64904 | 35058 ft | 491 kts | 119° |
| 2026-05-07 21:08 | 46.44318 | 13.73828 | 35080 ft | 491 kts | 120° |
| 2026-05-07 21:08 | 46.41330 | 13.82657 | 35048 ft | 491 kts | 120° |
| 2026-05-07 21:09 | 46.38314 | 13.91521 | 35042 ft | 492 kts | 120° |
| 2026-05-07 21:09 | 46.35283 | 14.00410 | 35075 ft | 492 kts | 120° |
| 2026-05-07 21:10 | 46.32256 | 14.09259 | 35041 ft | 492 kts | 120° |
| 2026-05-07 21:10 | 46.29221 | 14.18094 | 35063 ft | 492 kts | 120° |
| 2026-05-07 21:10 | 46.27701 | 14.22513 | 34943 ft | 492 kts | 120° |
| 2026-05-07 21:11 | 46.26184 | 14.26916 | 34757 ft | 491 kts | 120° |
| 2026-05-07 21:11 | 46.24664 | 14.31315 | 34555 ft | 490 kts | 120° |
| 2026-05-07 21:11 | 46.21628 | 14.40084 | 34102 ft | 486 kts | 121° |
| 2026-05-07 21:12 | 46.20129 | 14.44404 | 33843 ft | 484 kts | 121° |
| 2026-05-07 21:12 | 46.18629 | 14.48718 | 33602 ft | 484 kts | 121° |
| 2026-05-07 21:12 | 46.17122 | 14.53039 | 33344 ft | 484 kts | 121° |
| 2026-05-07 21:12 | 46.15602 | 14.57388 | 33085 ft | 485 kts | 120° |
| 2026-05-07 21:13 | 46.14066 | 14.61776 | 32833 ft | 487 kts | 121° |
| 2026-05-07 21:13 | 46.12542 | 14.66135 | 32573 ft | 487 kts | 121° |
| 2026-05-07 21:13 | 46.11059 | 14.70509 | 32316 ft | 488 kts | 119° |
| 2026-05-07 21:13 | 46.09746 | 14.75006 | 32062 ft | 490 kts | 115° |
| 2026-05-07 21:14 | 46.08627 | 14.79648 | 31804 ft | 490 kts | 111° |
| 2026-05-07 21:14 | 46.07725 | 14.84360 | 31544 ft | 490 kts | 107° |
| 2026-05-07 21:14 | 46.07037 | 14.89140 | 31296 ft | 490 kts | 103° |
| 2026-05-07 21:14 | 46.06466 | 14.94010 | 31030 ft | 489 kts | 102° |
| 2026-05-07 21:15 | 46.05919 | 14.98813 | 30769 ft | 488 kts | 102° |
| 2026-05-07 21:15 | 46.05373 | 15.03589 | 30517 ft | 486 kts | 102° |
| 2026-05-07 21:15 | 46.04816 | 15.08385 | 30257 ft | 484 kts | 102° |
| 2026-05-07 21:15 | 46.04253 | 15.13160 | 30012 ft | 482 kts | 102° |
| 2026-05-07 21:16 | 46.03692 | 15.17877 | 29755 ft | 480 kts | 102° |
| 2026-05-07 21:16 | 46.03128 | 15.22591 | 29509 ft | 476 kts | 103° |
| 2026-05-07 21:16 | 46.02569 | 15.27236 | 29239 ft | 473 kts | 103° |
| 2026-05-07 21:16 | 46.02003 | 15.31900 | 28951 ft | 471 kts | 102° |
| 2026-05-07 21:17 | 46.01449 | 15.36462 | 28549 ft | 467 kts | 102° |
| 2026-05-07 21:17 | 46.00889 | 15.41064 | 28097 ft | 464 kts | 102° |
| 2026-05-07 21:17 | 46.00332 | 15.45619 | 27627 ft | 460 kts | 103° |
| 2026-05-07 21:17 | 45.99778 | 15.50134 | 27173 ft | 457 kts | 102° |
| 2026-05-07 21:18 | 45.99227 | 15.54594 | 26707 ft | 453 kts | 103° |
| 2026-05-07 21:18 | 45.98679 | 15.59037 | 26276 ft | 449 kts | 103° |
| 2026-05-07 21:18 | 45.98130 | 15.63447 | 25835 ft | 446 kts | 103° |
| 2026-05-07 21:18 | 45.97496 | 15.67746 | 25377 ft | 439 kts | 111° |
| 2026-05-07 21:19 | 45.96327 | 15.71673 | 24971 ft | 426 kts | 124° |
| 2026-05-07 21:19 | 45.94640 | 15.75107 | 24557 ft | 414 kts | 135° |
| 2026-05-07 21:19 | 45.92798 | 15.78262 | 24145 ft | 409 kts | 136° |
| 2026-05-07 21:19 | 45.90971 | 15.81317 | 23720 ft | 406 kts | 136° |
| 2026-05-07 21:20 | 45.89136 | 15.84390 | 23279 ft | 402 kts | 136° |
| 2026-05-07 21:20 | 45.87320 | 15.87448 | 22863 ft | 399 kts | 135° |
| 2026-05-07 21:20 | 45.85532 | 15.90475 | 22427 ft | 396 kts | 135° |
| 2026-05-07 21:20 | 45.83783 | 15.93445 | 22017 ft | 393 kts | 135° |
| 2026-05-07 21:21 | 45.82034 | 15.96418 | 21603 ft | 390 kts | 135° |
| 2026-05-07 21:21 | 45.80280 | 15.99403 | 21166 ft | 387 kts | 134° |
| 2026-05-07 21:21 | 45.78545 | 16.02349 | 20748 ft | 384 kts | 134° |
| 2026-05-07 21:21 | 45.76836 | 16.05253 | 20330 ft | 381 kts | 134° |
| 2026-05-07 21:22 | 45.75143 | 16.08129 | 19921 ft | 379 kts | 134° |
| 2026-05-07 21:22 | 45.73447 | 16.11004 | 19496 ft | 376 kts | 134° |
| 2026-05-07 21:22 | 45.71769 | 16.13847 | 19086 ft | 373 kts | 133° |
| 2026-05-07 21:22 | 45.70101 | 16.16669 | 18665 ft | 371 kts | 133° |
| 2026-05-07 21:23 | 45.68451 | 16.19461 | 18251 ft | 368 kts | 133° |
| 2026-05-07 21:23 | 45.66792 | 16.22266 | 17834 ft | 366 kts | 133° |
| 2026-05-07 21:23 | 45.65160 | 16.25023 | 17421 ft | 363 kts | 133° |
| 2026-05-07 21:23 | 45.63538 | 16.27759 | 17009 ft | 361 kts | 133° |
| 2026-05-07 21:24 | 45.61925 | 16.30476 | 16576 ft | 359 kts | 133° |
| 2026-05-07 21:24 | 45.60313 | 16.33189 | 16165 ft | 357 kts | 133° |
| 2026-05-07 21:24 | 45.58708 | 16.35886 | 15749 ft | 355 kts | 133° |
| 2026-05-07 21:24 | 45.57138 | 16.38522 | 15339 ft | 352 kts | 133° |
| 2026-05-07 21:25 | 45.55554 | 16.41181 | 14943 ft | 350 kts | 133° |
| 2026-05-07 21:25 | 45.53984 | 16.43813 | 14514 ft | 348 kts | 133° |
| 2026-05-07 21:25 | 45.52423 | 16.46427 | 14096 ft | 346 kts | 133° |
| 2026-05-07 21:25 | 45.50860 | 16.49043 | 13683 ft | 344 kts | 133° |
| 2026-05-07 21:26 | 45.49316 | 16.51622 | 13269 ft | 343 kts | 133° |
| 2026-05-07 21:26 | 45.47769 | 16.54206 | 12851 ft | 341 kts | 133° |
| 2026-05-07 21:26 | 45.46252 | 16.56736 | 12456 ft | 339 kts | 132° |
| 2026-05-07 21:26 | 45.44732 | 16.59271 | 12043 ft | 337 kts | 133° |
| 2026-05-07 21:27 | 45.43212 | 16.61802 | 11638 ft | 335 kts | 132° |
| 2026-05-07 21:27 | 45.41704 | 16.64313 | 11239 ft | 333 kts | 132° |
| 2026-05-07 21:27 | 45.40194 | 16.66823 | 10837 ft | 331 kts | 133° |
| 2026-05-07 21:27 | 45.38713 | 16.69282 | 10447 ft | 329 kts | 133° |
| 2026-05-07 21:28 | 45.37242 | 16.71724 | 10208 ft | 321 kts | 133° |
| 2026-05-07 21:28 | 45.35810 | 16.74103 | 10075 ft | 308 kts | 133° |
| 2026-05-07 21:28 | 45.34493 | 16.76288 | 9965 ft | 297 kts | 133° |
| 2026-05-07 21:28 | 45.33141 | 16.78522 | 9606 ft | 296 kts | 133° |
| 2026-05-07 21:29 | 45.31803 | 16.80733 | 9246 ft | 293 kts | 133° |
| 2026-05-07 21:29 | 45.30471 | 16.82934 | 8913 ft | 291 kts | 132° |
| 2026-05-07 21:29 | 45.29300 | 16.85277 | 8508 ft | 293 kts | 123° |
| 2026-05-07 21:29 | 45.28256 | 16.87764 | 8036 ft | 295 kts | 122° |
| 2026-05-07 21:30 | 45.27220 | 16.90278 | 7592 ft | 295 kts | 122° |
| 2026-05-07 21:30 | 45.26166 | 16.92792 | 7219 ft | 293 kts | 122° |
| 2026-05-07 21:30 | 45.25120 | 16.95248 | 6845 ft | 291 kts | 123° |
| 2026-05-07 21:30 | 45.24063 | 16.97697 | 6478 ft | 288 kts | 123° |
| 2026-05-07 21:31 | 45.23030 | 17.00080 | 6159 ft | 285 kts | 123° |
| 2026-05-07 21:31 | 45.21991 | 17.02463 | 5816 ft | 282 kts | 123° |
| 2026-05-07 21:31 | 45.20961 | 17.04821 | 5479 ft | 280 kts | 123° |
| 2026-05-07 21:31 | 45.19950 | 17.07131 | 5143 ft | 277 kts | 123° |
| 2026-05-07 21:32 | 45.18930 | 17.09458 | 4809 ft | 274 kts | 123° |
| 2026-05-07 21:32 | 45.17944 | 17.11704 | 4514 ft | 270 kts | 123° |
| 2026-05-07 21:32 | 45.16951 | 17.13965 | 4262 ft | 262 kts | 123° |
| 2026-05-07 21:32 | 45.16021 | 17.16083 | 4002 ft | 245 kts | 123° |
| 2026-05-07 21:33 | 45.15148 | 17.18069 | 3757 ft | 232 kts | 124° |
| 2026-05-07 21:33 | 45.14318 | 17.19954 | 3565 ft | 223 kts | 124° |
| 2026-05-07 21:33 | 45.13528 | 17.21746 | 3405 ft | 206 kts | 124° |
| 2026-05-07 21:33 | 45.12799 | 17.23405 | 3203 ft | 190 kts | 124° |
| 2026-05-07 21:34 | 45.12049 | 17.24838 | 2956 ft | 173 kts | 143° |
| 2026-05-07 21:34 | 45.10992 | 17.25471 | 2772 ft | 164 kts | 172° |
| 2026-05-07 21:34 | 45.09876 | 17.25748 | 2606 ft | 163 kts | 174° |
| 2026-05-07 21:34 | 45.08758 | 17.26006 | 2499 ft | 163 kts | 173° |
| 2026-05-07 21:35 | 45.07639 | 17.26274 | 2374 ft | 163 kts | 173° |
| 2026-05-07 21:35 | 45.06510 | 17.26556 | 2250 ft | 163 kts | 172° |
| 2026-05-07 21:35 | 45.05401 | 17.26841 | 2126 ft | 162 kts | 172° |
| 2026-05-07 21:35 | 45.04287 | 17.27129 | 2059 ft | 161 kts | 172° |
| 2026-05-07 21:36 | 45.03225 | 17.27407 | 1885 ft | 147 kts | 172° |
| 2026-05-07 21:36 | 45.02240 | 17.27664 | 1717 ft | 143 kts | 172° |
| 2026-05-07 21:36 | 45.01263 | 17.27917 | 1547 ft | 142 kts | 171° |
| 2026-05-07 21:36 | 45.00293 | 17.28166 | 1363 ft | 142 kts | 171° |
| 2026-05-07 21:37 | 44.99323 | 17.28432 | 1192 ft | 142 kts | 170° |
| 2026-05-07 21:37 | 44.98356 | 17.28682 | 1042 ft | 141 kts | 171° |
| 2026-05-07 21:37 | 44.97387 | 17.28921 | 880 ft | 141 kts | 170° |
| 2026-05-07 21:37 | 44.96421 | 17.29169 | 694 ft | 140 kts | 169° |
| 2026-05-07 21:38 | 44.95457 | 17.29409 | 457 ft | 139 kts | 170° |
| 2026-05-07 21:38 | 44.94551 | 17.29643 | 386 ft | 118 kts | 169° |
| 2026-05-07 21:38 | 44.93906 | 17.29812 | 394 ft | 68 kts | 170° |
| 2026-05-07 21:38 | 44.93653 | 17.29891 | 398 ft | 15 kts | 147° |
| 2026-05-07 21:39 | 44.93608 | 17.29957 | 398 ft | 7 kts | 130° |